createdAt,value
2022-12-31T00:01:16.525Z,86.33
2022-12-31T00:03:43.816Z,86.82
2022-12-31T00:06:20.974Z,86.31
2022-12-31T00:08:48.155Z,86.90
2022-12-31T00:11:14.903Z,86.86
2022-12-31T00:13:41.573Z,87.21
2022-12-31T00:16:14.156Z,87.14
2022-12-31T00:18:44.543Z,87.25
2022-12-31T00:21:11.474Z,87.46
2022-12-31T00:23:37.939Z,87.06
2022-12-31T00:26:16.357Z,87.10
2022-12-31T00:28:43.375Z,87.56
2022-12-31T00:31:18.320Z,87.42
2022-12-31T00:33:45.215Z,86.66
2022-12-31T00:36:21.741Z,86.48
2022-12-31T00:38:50.710Z,86.71
2022-12-31T00:41:19.279Z,87.33
2022-12-31T00:43:45.941Z,86.62
2022-12-31T00:46:13.407Z,87.62
2022-12-31T00:48:40.769Z,87.23
2022-12-31T00:51:09.049Z,87.43
2022-12-31T00:53:35.859Z,86.73
2022-12-31T00:56:08.168Z,87.00
2022-12-31T00:58:35.319Z,86.47
2022-12-31T01:01:32.837Z,86.84
2022-12-31T01:04:06.520Z,86.70
2022-12-31T01:06:33.210Z,87.06
2022-12-31T01:08:59.701Z,86.59
2022-12-31T01:11:29.292Z,86.55
2022-12-31T01:13:58.031Z,86.44
2022-12-31T01:16:29.420Z,86.80
2022-12-31T01:19:02.447Z,87.55
2022-12-31T01:21:29.510Z,87.12
2022-12-31T01:23:55.956Z,87.17
2022-12-31T01:26:22.414Z,86.63
2022-12-31T01:28:49.084Z,87.63
2022-12-31T01:31:17.645Z,87.15
2022-12-31T01:33:45.221Z,86.65
2022-12-31T01:36:16.068Z,87.08
2022-12-31T01:38:44.313Z,86.80
2022-12-31T01:41:17.007Z,87.26
2022-12-31T01:43:44.914Z,87.10
2022-12-31T01:46:14.352Z,86.64
2022-12-31T01:48:40.906Z,86.92
2022-12-31T01:51:09.526Z,87.16
2022-12-31T01:53:40.761Z,87.04
2022-12-31T01:56:07.716Z,86.66
2022-12-31T01:58:39.937Z,86.62
2022-12-31T02:01:09.700Z,86.74
2022-12-31T02:03:37.102Z,87.19
2022-12-31T02:06:10.854Z,87.21
2022-12-31T02:08:41.927Z,86.39
2022-12-31T02:11:24.250Z,86.70
2022-12-31T02:13:56.603Z,86.34
2022-12-31T02:16:40.622Z,86.64
2022-12-31T02:19:19.584Z,86.58
2022-12-31T02:22:07.778Z,86.51
2022-12-31T02:24:53.138Z,86.38
2022-12-31T02:27:29.464Z,86.31
2022-12-31T02:30:06.318Z,86.42
2022-12-31T02:32:58.009Z,86.63
2022-12-31T02:35:30.566Z,86.12
2022-12-31T02:38:03.988Z,86.72
2022-12-31T02:40:34.464Z,86.12
2022-12-31T02:43:00.898Z,86.44
2022-12-31T02:45:33.462Z,86.25
2022-12-31T02:48:26.287Z,86.36
2022-12-31T02:50:58.719Z,86.18
2022-12-31T02:53:25.054Z,86.05
2022-12-31T02:56:08.535Z,87.00
2022-12-31T02:59:02.283Z,86.39
2022-12-31T03:01:53.688Z,85.95
2022-12-31T03:04:34.356Z,85.91
2022-12-31T03:07:02.373Z,86.30
2022-12-31T03:09:28.857Z,86.37
2022-12-31T03:12:14.078Z,86.07
2022-12-31T03:14:40.609Z,86.51
2022-12-31T03:17:07.339Z,86.90
2022-12-31T03:19:52.520Z,86.41
2022-12-31T03:22:28.130Z,86.39
2022-12-31T03:25:34.931Z,85.82
2022-12-31T03:28:10.858Z,85.92
2022-12-31T03:30:39.670Z,85.77
2022-12-31T03:33:07.257Z,85.47
2022-12-31T03:35:35.857Z,86.61
2022-12-31T03:38:02.873Z,85.93
2022-12-31T03:40:30.309Z,86.28
2022-12-31T03:42:56.801Z,86.62
2022-12-31T03:45:24.087Z,85.24
2022-12-31T03:47:50.857Z,85.58
2022-12-31T03:50:18.961Z,85.79
2022-12-31T03:52:45.818Z,86.01
2022-12-31T03:55:12.875Z,85.62
2022-12-31T03:57:40.071Z,86.00
2022-12-31T04:00:09.322Z,85.83
2022-12-31T04:02:36.347Z,85.52
2022-12-31T04:05:03.227Z,85.09
2022-12-31T04:07:29.692Z,85.06
2022-12-31T04:09:56.259Z,85.24
2022-12-31T04:12:22.625Z,85.22
2022-12-31T04:14:49.032Z,85.27
2022-12-31T04:17:15.593Z,84.97
2022-12-31T04:19:42.063Z,84.96
2022-12-31T04:22:08.910Z,84.57
2022-12-31T04:24:35.285Z,85.04
2022-12-31T04:27:07.334Z,84.74
2022-12-31T04:29:35.250Z,84.88
2022-12-31T04:32:02.195Z,84.34
2022-12-31T04:34:28.607Z,84.22
2022-12-31T04:36:55.165Z,84.80
2022-12-31T04:39:21.632Z,84.66
2022-12-31T04:41:48.105Z,84.96
2022-12-31T04:44:14.612Z,84.61
2022-12-31T04:46:41.072Z,84.53
2022-12-31T04:49:07.570Z,84.66
2022-12-31T04:51:34.361Z,85.47
2022-12-31T04:54:00.803Z,84.95
2022-12-31T04:56:28.279Z,85.07
2022-12-31T04:58:55.194Z,84.71
2022-12-31T05:01:22.181Z,84.68
2022-12-31T05:03:49.471Z,85.00
2022-12-31T05:06:18.932Z,84.64
2022-12-31T05:08:46.210Z,84.43
2022-12-31T05:11:13.213Z,84.65
2022-12-31T05:13:39.953Z,84.58
2022-12-31T05:16:07.363Z,84.74
2022-12-31T05:18:34.566Z,85.21
2022-12-31T05:21:01.209Z,84.32
2022-12-31T05:23:27.995Z,84.83
2022-12-31T05:25:54.523Z,84.07
2022-12-31T05:28:21.611Z,84.64
2022-12-31T05:30:50.112Z,84.68
2022-12-31T05:33:18.017Z,84.86
2022-12-31T05:35:45.307Z,84.34
2022-12-31T05:38:11.953Z,84.59
2022-12-31T05:40:38.394Z,85.24
2022-12-31T05:43:04.882Z,84.27
2022-12-31T05:45:31.605Z,84.85
2022-12-31T05:47:58.154Z,84.52
2022-12-31T05:50:24.581Z,84.55
2022-12-31T05:52:50.992Z,84.91
2022-12-31T05:55:17.660Z,84.18
2022-12-31T05:57:44.065Z,84.17
2022-12-31T06:00:11.536Z,83.97
2022-12-31T06:02:38.114Z,84.25
2022-12-31T06:05:05.120Z,84.28
2022-12-31T06:07:31.726Z,84.05
2022-12-31T06:09:58.194Z,84.27
2022-12-31T06:12:24.703Z,83.94
2022-12-31T06:14:51.099Z,83.75
2022-12-31T06:17:17.585Z,84.16
2022-12-31T06:19:44.024Z,83.76
2022-12-31T06:22:10.421Z,84.10
2022-12-31T06:24:36.769Z,83.32
2022-12-31T06:27:03.210Z,83.58
2022-12-31T06:29:29.744Z,83.46
2022-12-31T06:31:56.173Z,83.40
2022-12-31T06:34:22.618Z,83.27
2022-12-31T06:36:49.013Z,83.42
2022-12-31T06:39:15.457Z,83.17
2022-12-31T06:41:41.878Z,83.40
2022-12-31T06:44:08.260Z,82.96
2022-12-31T06:46:34.687Z,82.43
2022-12-31T06:49:01.137Z,83.08
2022-12-31T06:51:27.547Z,83.36
2022-12-31T06:53:54.005Z,82.67
2022-12-31T06:56:34.084Z,82.74
2022-12-31T06:59:01.961Z,82.71
2022-12-31T07:01:40.654Z,82.92
2022-12-31T07:04:46.033Z,82.92
2022-12-31T07:07:26.514Z,83.06
2022-12-31T07:10:05.281Z,83.31
2022-12-31T07:13:02.969Z,82.75
2022-12-31T07:15:51.501Z,83.04
2022-12-31T07:18:36.440Z,83.03
2022-12-31T07:21:03.162Z,83.07
2022-12-31T07:23:29.753Z,82.83
2022-12-31T07:26:15.371Z,83.01
2022-12-31T07:28:58.192Z,83.46
2022-12-31T07:31:50.702Z,82.97
2022-12-31T07:34:41.162Z,82.69
2022-12-31T07:37:27.505Z,82.67
2022-12-31T07:40:32.859Z,82.32
2022-12-31T07:43:26.202Z,82.80
2022-12-31T07:46:19.445Z,82.52
2022-12-31T07:48:46.150Z,82.85
2022-12-31T07:51:12.849Z,82.17
2022-12-31T07:53:39.336Z,81.94
2022-12-31T07:56:09.606Z,82.45
2022-12-31T07:58:55.843Z,82.53
2022-12-31T08:01:34.931Z,82.10
2022-12-31T08:04:09.559Z,81.90
2022-12-31T08:06:57.762Z,81.60
2022-12-31T08:09:44.179Z,81.60
2022-12-31T08:12:10.788Z,81.63
2022-12-31T08:14:46.019Z,81.72
2022-12-31T08:17:14.977Z,81.61
2022-12-31T08:19:42.267Z,80.66
2022-12-31T08:22:39.290Z,81.04
2022-12-31T08:25:26.373Z,81.17
2022-12-31T08:28:23.834Z,81.02
2022-12-31T08:31:10.852Z,80.62
2022-12-31T08:34:08.468Z,80.91
2022-12-31T08:37:12.710Z,81.00
2022-12-31T08:39:59.956Z,80.54
2022-12-31T08:42:48.890Z,80.69
2022-12-31T08:45:32.941Z,80.67
2022-12-31T08:48:18.090Z,80.19
2022-12-31T08:50:44.775Z,80.87
2022-12-31T08:53:11.382Z,80.24
2022-12-31T08:55:38.089Z,80.52
2022-12-31T08:58:13.710Z,80.10
2022-12-31T09:00:41.225Z,80.29
2022-12-31T09:03:30.387Z,79.96
2022-12-31T09:06:10.453Z,80.15
2022-12-31T09:09:21.016Z,79.90
2022-12-31T09:12:08.977Z,79.49
2022-12-31T09:14:47.073Z,79.41
2022-12-31T09:17:45.197Z,79.17
2022-12-31T09:20:21.998Z,78.94
2022-12-31T09:22:48.940Z,78.67
2022-12-31T09:25:18.113Z,78.60
2022-12-31T09:27:56.819Z,78.22
2022-12-31T09:30:23.346Z,78.27
2022-12-31T09:33:07.651Z,78.06
2022-12-31T09:35:54.915Z,78.02
2022-12-31T09:38:23.314Z,77.90
2022-12-31T09:41:16.281Z,77.81
2022-12-31T09:44:03.173Z,77.66
2022-12-31T09:47:00.529Z,77.87
2022-12-31T09:49:55.676Z,77.08
2022-12-31T09:52:40.841Z,77.20
2022-12-31T09:55:19.341Z,76.75
2022-12-31T09:58:01.534Z,76.36
2022-12-31T10:00:43.360Z,76.64
2022-12-31T10:03:31.631Z,75.93
2022-12-31T10:06:05.558Z,75.66
2022-12-31T10:08:38.525Z,75.30
2022-12-31T10:11:27.263Z,75.17
2022-12-31T10:14:14.922Z,75.29
2022-12-31T10:17:06.065Z,73.92
2022-12-31T10:19:35.395Z,73.44
2022-12-31T10:22:26.753Z,74.03
2022-12-31T10:25:37.989Z,73.67
2022-12-31T10:28:33.587Z,73.55
2022-12-31T10:31:14.082Z,73.04
2022-12-31T10:34:05.389Z,73.60
2022-12-31T10:36:56.667Z,72.49
2022-12-31T10:39:43.681Z,72.62
2022-12-31T10:42:38.171Z,72.15
2022-12-31T10:45:32.630Z,72.34
2022-12-31T10:48:36.772Z,71.19
2022-12-31T10:51:22.129Z,71.46
2022-12-31T10:54:07.195Z,70.74
2022-12-31T10:57:07.079Z,70.28
2022-12-31T10:59:36.422Z,69.59
2022-12-31T11:02:35.441Z,69.15
2022-12-31T11:05:21.137Z,69.46
2022-12-31T11:07:56.307Z,69.91
2022-12-31T11:10:41.528Z,69.57
2022-12-31T11:13:23.923Z,69.53
2022-12-31T11:16:30.141Z,68.54
2022-12-31T11:19:11.753Z,68.53
2022-12-31T11:21:59.829Z,67.45
2022-12-31T11:25:14.167Z,68.61
2022-12-31T11:27:54.209Z,68.46
2022-12-31T11:30:46.137Z,66.95
2022-12-31T11:33:50.716Z,67.33
2022-12-31T11:36:54.642Z,65.96
2022-12-31T11:39:42.489Z,66.66
2022-12-31T11:42:24.070Z,66.65
2022-12-31T11:45:12.670Z,65.53
2022-12-31T11:48:29.520Z,66.34
2022-12-31T11:51:31.688Z,65.67
2022-12-31T11:54:24.522Z,65.85
2022-12-31T11:57:05.105Z,64.58
2022-12-31T11:59:31.559Z,64.86
2022-12-31T12:02:19.844Z,64.31
2022-12-31T12:04:49.818Z,65.03
2022-12-31T12:07:17.598Z,64.20
2022-12-31T12:09:45.418Z,64.81
2022-12-31T12:12:12.790Z,64.52
2022-12-31T12:14:41.777Z,63.41
2022-12-31T12:17:10.529Z,63.87
2022-12-31T12:19:45.898Z,63.67
2022-12-31T12:22:21.020Z,63.43
2022-12-31T12:25:06.264Z,62.54
2022-12-31T12:27:35.076Z,63.17
2022-12-31T12:30:12.147Z,62.47
2022-12-31T12:32:38.549Z,63.25
2022-12-31T12:35:16.028Z,63.48
2022-12-31T12:37:42.494Z,62.33
2022-12-31T12:40:21.484Z,63.96
2022-12-31T12:42:49.042Z,63.19
2022-12-31T12:45:51.416Z,63.87
2022-12-31T12:48:37.050Z,62.46
2022-12-31T12:51:19.060Z,63.85
2022-12-31T12:54:00.731Z,64.04
2022-12-31T12:56:41.712Z,62.97
2022-12-31T12:59:41.504Z,62.22
2022-12-31T13:02:25.075Z,62.50
2022-12-31T13:04:59.915Z,63.08
2022-12-31T13:07:41.675Z,62.91
2022-12-31T13:10:42.350Z,62.37
2022-12-31T13:13:39.145Z,62.42
2022-12-31T13:16:14.703Z,61.89
2022-12-31T13:18:54.760Z,62.45
2022-12-31T13:21:37.666Z,61.43
2022-12-31T13:24:30.676Z,62.27
2022-12-31T13:27:21.055Z,61.57
2022-12-31T13:29:48.909Z,62.34
2022-12-31T13:32:20.741Z,62.32
2022-12-31T13:34:51.772Z,61.64
2022-12-31T13:37:42.137Z,61.74
2022-12-31T13:40:23.872Z,61.57
2022-12-31T13:42:57.146Z,62.13
2022-12-31T13:45:45.409Z,62.63
2022-12-31T13:48:21.401Z,62.42
2022-12-31T13:51:18.311Z,62.39
2022-12-31T13:54:01.743Z,61.76
2022-12-31T13:56:36.226Z,62.11
2022-12-31T13:59:16.602Z,61.64
2022-12-31T14:01:59.185Z,61.48
2022-12-31T14:04:33.962Z,61.85
2022-12-31T14:07:14.000Z,62.47
2022-12-31T14:09:40.455Z,62.61
2022-12-31T14:12:22.955Z,62.27
2022-12-31T14:15:13.857Z,62.79
2022-12-31T14:17:47.341Z,63.60
2022-12-31T14:20:47.964Z,62.91
2022-12-31T14:23:20.339Z,63.31
2022-12-31T14:26:00.140Z,64.22
2022-12-31T14:28:35.718Z,64.11
2022-12-31T14:31:26.440Z,64.33
2022-12-31T14:34:18.950Z,65.06
2022-12-31T14:37:22.908Z,64.87
2022-12-31T14:40:32.788Z,65.42
2022-12-31T14:43:11.154Z,65.51
2022-12-31T14:45:47.854Z,65.60
2022-12-31T14:48:24.999Z,65.40
2022-12-31T14:50:51.904Z,65.73
2022-12-31T14:53:29.233Z,65.84
2022-12-31T14:56:27.037Z,66.21
2022-12-31T14:59:02.814Z,65.82
2022-12-31T15:01:30.278Z,66.44
2022-12-31T15:03:58.358Z,66.18
2022-12-31T15:07:24.339Z,66.25
2022-12-31T15:09:57.996Z,66.84
2022-12-31T15:13:06.659Z,66.59
2022-12-31T15:15:57.476Z,66.99
2022-12-31T15:18:36.858Z,67.24
2022-12-31T15:21:24.939Z,67.07
2022-12-31T15:23:52.206Z,67.59
2022-12-31T15:26:31.542Z,67.42
2022-12-31T15:29:01.483Z,67.61
2022-12-31T15:31:28.707Z,67.49
2022-12-31T15:34:07.101Z,67.59
2022-12-31T15:36:39.439Z,68.31
2022-12-31T15:39:12.351Z,68.26
2022-12-31T15:42:18.563Z,68.37
2022-12-31T15:44:45.103Z,68.70
2022-12-31T15:47:20.344Z,68.82
2022-12-31T15:49:47.705Z,69.11
2022-12-31T15:52:43.780Z,69.27
2022-12-31T15:55:25.025Z,69.29
2022-12-31T15:57:53.339Z,69.43
2022-12-31T16:00:22.585Z,69.32
2022-12-31T16:02:53.272Z,69.33
2022-12-31T16:05:27.605Z,69.65
2022-12-31T16:07:56.307Z,69.55
2022-12-31T16:10:30.107Z,70.21
2022-12-31T16:12:58.545Z,69.85
2022-12-31T16:15:28.410Z,69.95
2022-12-31T16:18:06.529Z,69.64
2022-12-31T16:20:34.625Z,69.82
2022-12-31T16:23:03.443Z,70.00
2022-12-31T16:25:32.893Z,70.51
2022-12-31T16:28:02.458Z,70.75
2022-12-31T16:30:35.683Z,70.63
2022-12-31T16:33:06.436Z,70.62
2022-12-31T16:35:36.411Z,70.63
2022-12-31T16:38:11.807Z,71.06
2022-12-31T16:40:39.517Z,70.93
2022-12-31T16:43:27.078Z,71.82
2022-12-31T16:45:57.494Z,71.47
2022-12-31T16:48:26.198Z,72.20
2022-12-31T16:50:56.057Z,72.48
2022-12-31T16:53:26.872Z,72.28
2022-12-31T16:56:12.304Z,72.29
2022-12-31T16:58:47.807Z,71.95
2022-12-31T17:01:19.610Z,72.17
2022-12-31T17:03:54.468Z,72.29
2022-12-31T17:06:25.807Z,72.13
2022-12-31T17:08:56.006Z,72.29
2022-12-31T17:11:30.604Z,72.12
2022-12-31T17:14:09.562Z,72.34
2022-12-31T17:16:42.928Z,72.47
2022-12-31T17:19:40.444Z,72.95
2022-12-31T17:22:35.786Z,72.35
2022-12-31T17:25:23.363Z,72.82
2022-12-31T17:28:04.617Z,72.29
2022-12-31T17:30:35.418Z,71.94
2022-12-31T17:33:22.343Z,71.87
2022-12-31T17:35:55.314Z,72.36
2022-12-31T17:38:22.232Z,72.09
2022-12-31T17:40:52.542Z,72.14
2022-12-31T17:43:22.723Z,72.07
2022-12-31T17:45:54.527Z,72.12
2022-12-31T17:48:24.917Z,72.33
2022-12-31T17:50:54.462Z,72.61
2022-12-31T17:53:21.732Z,72.45
2022-12-31T17:55:52.024Z,72.36
2022-12-31T17:58:29.275Z,72.60
2022-12-31T18:00:57.637Z,72.61
2022-12-31T18:03:24.852Z,72.46
2022-12-31T18:05:55.288Z,72.45
2022-12-31T18:08:22.193Z,72.48
2022-12-31T18:10:49.435Z,72.71
2022-12-31T18:13:24.630Z,72.64
2022-12-31T18:15:52.493Z,72.41
2022-12-31T18:18:25.339Z,72.55
2022-12-31T18:21:04.886Z,72.85
2022-12-31T18:23:38.320Z,73.12
2022-12-31T18:26:19.696Z,73.00
2022-12-31T18:28:50.040Z,72.97
2022-12-31T18:31:21.501Z,72.38
2022-12-31T18:33:51.020Z,72.64
2022-12-31T18:36:21.332Z,72.63
2022-12-31T18:38:48.552Z,72.43
2022-12-31T18:41:20.860Z,72.41
2022-12-31T18:43:48.387Z,72.64
2022-12-31T18:46:20.555Z,72.92
2022-12-31T18:48:47.693Z,72.39
2022-12-31T18:51:20.150Z,72.20
2022-12-31T18:53:47.760Z,71.98
2022-12-31T18:56:19.908Z,71.90
2022-12-31T18:58:47.509Z,72.03
2022-12-31T19:01:35.237Z,72.06
2022-12-31T19:04:27.669Z,72.11
2022-12-31T19:06:55.247Z,71.96
2022-12-31T19:12:13.173Z,72.05
2022-12-31T19:14:40.126Z,72.46
2022-12-31T19:19:32.742Z,71.97
2022-12-31T19:21:59.393Z,71.93
2022-12-31T19:24:29.029Z,72.31
2022-12-31T19:26:56.066Z,72.18
2022-12-31T19:29:28.090Z,72.03
2022-12-31T19:31:55.178Z,72.39
2022-12-31T19:34:22.202Z,72.39
2022-12-31T19:36:52.143Z,72.23
2022-12-31T19:39:21.100Z,72.20
2022-12-31T19:41:54.619Z,72.16
2022-12-31T19:44:25.294Z,72.17
2022-12-31T19:46:52.139Z,72.41
2022-12-31T19:49:18.890Z,72.42
2022-12-31T19:51:46.109Z,72.39
2022-12-31T19:54:13.686Z,72.45
2022-12-31T19:56:40.824Z,72.62
2022-12-31T19:59:09.793Z,72.14
2022-12-31T20:01:37.582Z,72.25
2022-12-31T20:04:05.055Z,72.34
2022-12-31T20:06:32.136Z,72.22
2022-12-31T20:08:59.304Z,72.19
2022-12-31T20:11:26.601Z,72.33
2022-12-31T20:13:54.226Z,72.14
2022-12-31T20:16:24.605Z,72.08
2022-12-31T20:18:51.442Z,72.37
2022-12-31T20:21:21.186Z,72.00
2022-12-31T20:23:50.159Z,71.99
2022-12-31T20:26:17.660Z,72.29
2022-12-31T20:28:44.832Z,72.15
2022-12-31T20:31:17.302Z,72.79
2022-12-31T20:33:44.520Z,72.28
2022-12-31T20:36:13.377Z,72.59
2022-12-31T20:38:40.572Z,72.40
2022-12-31T20:41:12.872Z,72.60
2022-12-31T20:43:40.070Z,72.46
2022-12-31T20:46:14.481Z,72.88
2022-12-31T20:48:41.967Z,72.16
2022-12-31T20:51:08.507Z,72.84
2022-12-31T20:53:34.939Z,73.17
2022-12-31T20:56:06.000Z,73.28
2022-12-31T20:58:32.622Z,73.10
2022-12-31T21:00:59.167Z,73.09
2022-12-31T21:04:03.026Z,73.11
2022-12-31T21:06:13.141Z,73.40
2022-12-31T21:08:39.913Z,74.01
2022-12-31T21:11:27.059Z,73.22
2022-12-31T21:13:55.814Z,73.20
2022-12-31T21:16:22.917Z,73.69
2022-12-31T21:18:49.390Z,72.84
2022-12-31T21:21:16.089Z,73.43
2022-12-31T21:23:42.542Z,73.95
2022-12-31T21:26:09.001Z,73.89
2022-12-31T21:28:35.704Z,73.93
2022-12-31T21:31:07.171Z,73.89
2022-12-31T21:33:34.780Z,74.02
2022-12-31T21:36:04.554Z,74.05
2022-12-31T21:38:31.637Z,74.69
2022-12-31T21:41:05.579Z,74.22
2022-12-31T21:43:32.238Z,74.16
2022-12-31T21:46:02.959Z,74.41
2022-12-31T21:48:31.212Z,74.55
2022-12-31T21:51:23.576Z,74.70
2022-12-31T21:53:52.423Z,74.06
2022-12-31T21:56:21.543Z,74.07
2022-12-31T21:59:14.894Z,74.01
2022-12-31T22:02:00.798Z,74.28
2022-12-31T22:05:00.813Z,74.14
2022-12-31T22:07:18.686Z,74.04
2022-12-31T22:09:45.524Z,73.86
2022-12-31T22:12:15.316Z,74.99
2022-12-31T22:15:14.318Z,74.09
2022-12-31T22:17:29.532Z,74.13
2022-12-31T22:22:43.542Z,74.03
2022-12-31T22:25:10.286Z,74.09
2022-12-31T22:27:37.030Z,74.12
2022-12-31T22:30:04.131Z,74.67
2022-12-31T22:32:30.917Z,74.21
2022-12-31T22:34:57.849Z,74.26
2022-12-31T22:37:55.565Z,73.92
2022-12-31T22:40:11.879Z,75.31
2022-12-31T22:42:38.652Z,74.76
2022-12-31T22:45:06.899Z,74.61
2022-12-31T22:47:33.975Z,74.71
2022-12-31T22:50:01.145Z,75.10
2022-12-31T22:52:28.406Z,74.64
2022-12-31T22:54:55.137Z,74.62
2022-12-31T22:57:21.891Z,74.89
2022-12-31T22:59:48.770Z,74.34
2022-12-31T23:02:16.564Z,74.37
2022-12-31T23:04:43.639Z,74.57
2022-12-31T23:07:10.751Z,74.32
2022-12-31T23:09:56.316Z,74.68
2022-12-31T23:12:22.971Z,74.82
2022-12-31T23:15:08.189Z,75.15
2022-12-31T23:17:53.579Z,75.08
2022-12-31T23:20:42.303Z,75.04
2022-12-31T23:23:15.053Z,74.82
2022-12-31T23:25:44.819Z,75.02
2022-12-31T23:28:20.276Z,74.92
2022-12-31T23:30:47.891Z,74.40
2022-12-31T23:33:26.540Z,74.47
2022-12-31T23:36:05.140Z,74.60
2022-12-31T23:38:32.093Z,74.62
2022-12-31T23:41:01.631Z,74.33
2022-12-31T23:43:29.127Z,74.29
2022-12-31T23:45:55.927Z,74.46
2022-12-31T23:48:22.413Z,74.44
2022-12-31T23:50:53.472Z,74.29
2022-12-31T23:53:20.716Z,74.65
2022-12-31T23:55:47.119Z,74.84
2022-12-31T23:58:13.515Z,74.69
